createdAt,value
2022-07-25T00:00:08.846Z,22.0
2022-07-25T00:05:08.082Z,22.0
2022-07-25T00:10:07.775Z,21.8
2022-07-25T00:15:08.447Z,21.8
2022-07-25T00:20:08.149Z,21.8
2022-07-25T00:25:07.834Z,21.8
2022-07-25T00:30:08.530Z,21.6
2022-07-25T00:35:08.214Z,21.6
2022-07-25T00:40:07.942Z,21.5
2022-07-25T00:45:08.648Z,21.5
2022-07-25T00:50:08.414Z,21.2
2022-07-25T00:55:08.354Z,21.2
2022-07-25T01:00:08.060Z,21.2
2022-07-25T01:05:07.786Z,21.2
2022-07-25T01:10:08.135Z,21.0
2022-07-25T01:15:07.842Z,21.0
2022-07-25T01:20:08.549Z,21.0
2022-07-25T01:25:08.262Z,21.0
2022-07-25T01:30:08.032Z,20.7
2022-07-25T01:35:07.723Z,20.7
2022-07-25T01:40:08.436Z,20.6
2022-07-25T01:45:44.616Z,20.6
2022-07-25T01:50:08.296Z,20.2
2022-07-25T01:55:08.273Z,20.2
2022-07-25T02:00:08.117Z,20.2
2022-07-25T02:05:08.631Z,20.2
2022-07-25T02:10:08.414Z,20.1
2022-07-25T02:15:08.156Z,20.1
2022-07-25T02:20:07.895Z,20.1
2022-07-25T02:25:08.630Z,20.1
2022-07-25T02:30:08.346Z,20.1
2022-07-25T02:35:12.933Z,20.1
2022-07-25T02:40:08.184Z,20.1
2022-07-25T02:45:07.868Z,20.1
2022-07-25T02:50:08.605Z,20.1
2022-07-25T02:55:09.830Z,20.1
2022-07-25T03:00:07.750Z,20.1
2022-07-25T03:05:08.458Z,20.1
2022-07-25T03:10:10.822Z,20.1
2022-07-25T03:15:08.153Z,20.1
2022-07-25T03:20:07.862Z,20.1
2022-07-25T03:25:15.919Z,20.1
2022-07-25T03:30:08.358Z,20.2
2022-07-25T03:35:08.030Z,20.2
2022-07-25T03:40:07.758Z,20.2
2022-07-25T03:45:08.462Z,20.2
2022-07-25T03:50:08.175Z,20.2
2022-07-25T03:55:07.902Z,20.2
2022-07-25T04:00:08.611Z,20.2
2022-07-25T04:05:02.461Z,20.2
2022-07-25T04:10:02.288Z,20.2
2022-07-25T04:15:02.170Z,20.6
2022-07-25T04:20:02.104Z,20.6
2022-07-25T04:25:02.397Z,20.7
2022-07-25T04:30:02.384Z,20.7
2022-07-25T04:35:02.411Z,21.2
2022-07-25T04:40:02.384Z,21.3
2022-07-25T04:45:02.218Z,21.3
2022-07-25T04:50:02.011Z,21.6
2022-07-25T04:55:01.733Z,21.6
2022-07-25T05:00:02.556Z,22.0
2022-07-25T05:05:03.151Z,22.0
2022-07-25T05:10:02.184Z,21.7
2022-07-25T05:15:02.009Z,21.7
2022-07-25T05:20:01.927Z,21.7
2022-07-25T05:25:02.810Z,21.8
2022-07-25T05:30:02.712Z,21.8
2022-07-25T05:35:02.750Z,21.8
2022-07-25T05:40:02.706Z,21.8
2022-07-25T05:45:02.609Z,22.2
2022-07-25T05:50:02.635Z,22.2
2022-07-25T05:55:02.592Z,22.6
2022-07-25T06:00:02.409Z,22.6
2022-07-25T06:05:02.282Z,23.1
2022-07-25T06:10:02.023Z,23.1
2022-07-25T06:15:01.771Z,23.6
2022-07-25T06:20:02.653Z,23.6
2022-07-25T06:25:02.455Z,24.5
2022-07-25T06:30:02.346Z,24.5
2022-07-25T06:35:02.107Z,24.7
2022-07-25T06:40:02.013Z,25.1
2022-07-25T06:45:01.769Z,25.1
2022-07-25T06:50:02.580Z,25.2
2022-07-25T06:55:02.571Z,25.2
2022-07-25T07:00:02.381Z,25.7
2022-07-25T07:05:02.132Z,25.7
2022-07-25T07:10:02.019Z,25.7
2022-07-25T07:15:01.785Z,25.7
2022-07-25T07:20:02.640Z,25.8
2022-07-25T07:25:02.571Z,25.8
2022-07-25T07:30:02.468Z,26.1
2022-07-25T07:35:02.226Z,26.1
2022-07-25T07:40:02.114Z,26.0
2022-07-25T07:45:01.896Z,26.0
2022-07-25T07:50:02.747Z,25.7
2022-07-25T07:55:12.579Z,25.7
2022-07-25T08:00:02.436Z,26.1
2022-07-25T08:05:02.348Z,26.1
2022-07-25T08:10:02.274Z,25.8
2022-07-25T08:15:02.311Z,25.8
2022-07-25T08:20:20.949Z,26.2
2022-07-25T08:25:02.699Z,26.2
2022-07-25T08:30:02.642Z,26.7
2022-07-25T08:35:02.549Z,26.7
2022-07-25T08:40:02.487Z,26.6
2022-07-25T08:45:02.273Z,27.2
2022-07-25T08:50:04.387Z,27.2
2022-07-25T08:55:02.565Z,26.8
2022-07-25T09:00:02.430Z,26.8
2022-07-25T09:05:02.283Z,27.3
2022-07-25T09:10:02.143Z,27.3
2022-07-25T09:15:02.171Z,27.8
2022-07-25T09:20:02.117Z,27.8
2022-07-25T09:25:01.919Z,29.5
2022-07-25T09:30:02.795Z,29.5
2022-07-25T09:35:02.654Z,29.1
2022-07-25T09:40:02.453Z,29.1
2022-07-25T09:45:02.386Z,27.3
2022-07-25T09:50:02.358Z,27.3
2022-07-25T09:55:02.130Z,28.6
2022-07-25T10:00:01.959Z,28.6
2022-07-25T10:05:01.677Z,28.5
2022-07-25T10:10:02.637Z,28.5
2022-07-25T10:15:02.469Z,28.7
2022-07-25T10:20:02.324Z,28.7
2022-07-25T10:25:02.176Z,30.2
2022-07-25T10:30:01.946Z,30.2
2022-07-25T10:35:01.814Z,30.1
2022-07-25T10:40:02.620Z,29.7
2022-07-25T10:45:02.562Z,29.7
2022-07-25T10:50:29.804Z,30.2
2022-07-25T10:55:02.229Z,30.2
2022-07-25T11:00:02.184Z,28.5
2022-07-25T11:05:02.145Z,28.5
2022-07-25T11:10:02.178Z,30.2
2022-07-25T11:15:02.033Z,28.0
2022-07-25T11:20:12.001Z,28.0
2022-07-25T11:25:01.849Z,29.1
2022-07-25T11:30:02.729Z,29.1
2022-07-25T11:35:02.524Z,28.5
2022-07-25T11:40:02.774Z,28.5
2022-07-25T11:45:02.570Z,27.7
2022-07-25T11:50:02.404Z,27.7
2022-07-25T11:55:02.220Z,28.5
2022-07-25T12:00:02.155Z,28.5
2022-07-25T12:05:02.387Z,27.7
2022-07-25T12:10:02.548Z,27.7
2022-07-25T12:15:02.411Z,27.5
2022-07-25T12:20:02.238Z,27.5
2022-07-25T12:25:02.015Z,28.3
2022-07-25T12:30:01.892Z,29.1
2022-07-25T12:35:02.685Z,29.1
2022-07-25T12:40:02.591Z,27.1
2022-07-25T12:45:02.347Z,27.1
2022-07-25T12:50:02.240Z,27.7
2022-07-25T12:55:02.223Z,26.8
2022-07-25T13:00:02.083Z,26.8
2022-07-25T13:05:01.888Z,27.5
2022-07-25T13:10:03.172Z,27.5
2022-07-25T13:15:01.933Z,27.2
2022-07-25T13:20:02.813Z,27.2
2022-07-25T13:25:02.764Z,27.2
2022-07-25T13:30:02.666Z,27.2
2022-07-25T13:35:02.632Z,26.7
2022-07-25T13:40:02.626Z,26.5
2022-07-25T13:45:02.540Z,26.5
2022-07-25T13:50:02.678Z,25.6
2022-07-25T13:55:02.656Z,25.6
2022-07-25T14:00:02.547Z,24.6
2022-07-25T14:05:04.325Z,24.2
2022-07-25T14:10:02.346Z,23.8
2022-07-25T14:15:02.136Z,23.7
2022-07-25T14:20:01.966Z,23.8
2022-07-25T14:25:02.673Z,24.5
2022-07-25T14:30:02.433Z,24.5
2022-07-25T14:35:02.271Z,25.3
2022-07-25T14:40:02.219Z,25.2
2022-07-25T14:45:02.627Z,25.2
2022-07-25T14:50:02.478Z,26.6
2022-07-25T14:55:02.314Z,26.6
2022-07-25T15:00:02.156Z,26.7
2022-07-25T15:05:02.010Z,26.7
2022-07-25T15:10:01.907Z,26.7
2022-07-25T15:15:01.722Z,25.2
2022-07-25T15:20:02.569Z,25.2
2022-07-25T15:25:45.388Z,24.6
2022-07-25T15:30:02.652Z,25.3
2022-07-25T15:35:02.501Z,25.3
2022-07-25T15:40:02.324Z,25.3
2022-07-25T15:45:31.399Z,28.6
2022-07-25T15:50:02.214Z,28.6
2022-07-25T15:55:02.218Z,27.5
2022-07-25T16:00:04.990Z,27.5
2022-07-25T16:05:01.905Z,26.2
2022-07-25T16:10:02.816Z,26.2
2022-07-25T16:15:02.727Z,26.0
2022-07-25T16:20:02.754Z,25.6
2022-07-25T16:25:02.695Z,28.5
2022-07-25T16:30:02.614Z,28.5
2022-07-25T16:35:02.557Z,26.5
2022-07-25T16:40:02.380Z,26.0
2022-07-25T16:45:02.267Z,26.0
2022-07-25T16:50:02.088Z,25.1
2022-07-25T16:55:01.885Z,25.1
2022-07-25T17:00:02.133Z,25.6
2022-07-25T17:05:02.020Z,25.6
2022-07-25T17:10:02.036Z,24.8
2022-07-25T17:15:01.778Z,24.8
2022-07-25T17:20:02.554Z,24.2
2022-07-25T17:25:02.378Z,24.2
2022-07-25T17:30:03.044Z,24.0
2022-07-25T17:35:01.858Z,24.0
2022-07-25T17:40:02.664Z,23.8
2022-07-25T17:45:02.538Z,23.8
2022-07-25T17:50:02.352Z,23.6
2022-07-25T17:55:02.158Z,23.6
2022-07-25T18:00:02.307Z,23.2
2022-07-25T18:05:01.987Z,23.2
2022-07-25T18:10:01.827Z,23.2
2022-07-25T18:15:02.633Z,23.2
2022-07-25T18:20:02.454Z,22.7
2022-07-25T18:25:02.304Z,22.7
2022-07-25T18:30:02.118Z,22.7
2022-07-25T18:35:01.929Z,22.7
2022-07-25T18:40:02.691Z,22.5
2022-07-25T18:45:02.478Z,22.5
2022-07-25T18:50:02.324Z,22.1
2022-07-25T18:55:02.293Z,22.1
2022-07-25T19:00:03.379Z,21.7
2022-07-25T19:05:02.804Z,21.7
2022-07-25T19:10:02.890Z,21.3
2022-07-25T19:15:02.837Z,21.3
2022-07-25T19:20:02.751Z,21.2
2022-07-25T19:25:02.785Z,21.2
2022-07-25T19:30:02.599Z,21.2
2022-07-25T19:35:02.429Z,21.2
2022-07-25T19:40:02.273Z,21.2
2022-07-25T19:45:02.129Z,21.2
2022-07-25T19:50:02.001Z,21.0
2022-07-25T19:55:01.884Z,21.0
2022-07-25T20:00:02.709Z,20.8
2022-07-25T20:05:02.550Z,20.8
2022-07-25T20:10:02.563Z,20.8
2022-07-25T20:15:01.763Z,20.8
2022-07-25T20:20:02.565Z,20.7
2022-07-25T20:25:02.363Z,20.7
2022-07-25T20:30:02.146Z,20.7
2022-07-25T20:35:14.789Z,20.7
2022-07-25T20:40:08.728Z,20.6
2022-07-25T20:45:08.530Z,20.6
2022-07-25T20:50:10.719Z,20.3
2022-07-25T20:55:08.716Z,20.3
2022-07-25T21:00:08.426Z,20.3
2022-07-25T21:05:08.138Z,20.3
2022-07-25T21:10:07.875Z,20.3
2022-07-25T21:15:08.597Z,20.3
2022-07-25T21:20:08.323Z,20.3
2022-07-25T21:25:08.032Z,20.3
2022-07-25T21:30:07.734Z,20.2
2022-07-25T21:35:08.476Z,20.2
2022-07-25T21:40:08.218Z,20.2
2022-07-25T21:45:07.894Z,20.2
2022-07-25T21:50:08.611Z,20.2
2022-07-25T21:55:08.295Z,20.2
2022-07-25T22:00:08.054Z,20.1
2022-07-25T22:05:07.762Z,20.1
2022-07-25T22:10:08.501Z,20.0
2022-07-25T22:15:08.150Z,20.0
2022-07-25T22:20:07.892Z,19.7
2022-07-25T22:25:08.620Z,19.7
2022-07-25T22:30:08.320Z,19.3
2022-07-25T22:35:08.295Z,19.3
2022-07-25T22:40:08.017Z,19.2
2022-07-25T22:45:07.698Z,19.2
2022-07-25T22:50:08.400Z,19.0
2022-07-25T22:55:08.105Z,19.0
2022-07-25T23:00:56.561Z,18.7
2022-07-25T23:05:08.437Z,18.7
2022-07-25T23:10:08.174Z,18.6
2022-07-25T23:15:07.870Z,18.6
2022-07-25T23:20:08.579Z,18.2
2022-07-25T23:25:08.283Z,18.2
2022-07-25T23:30:07.991Z,18.2
2022-07-25T23:35:07.725Z,18.2
2022-07-25T23:40:08.462Z,18.1
2022-07-25T23:45:08.183Z,18.1
2022-07-25T23:50:07.923Z,17.8
2022-07-25T23:55:08.610Z,17.8
